createdAt,value
2018-06-21T00:02:10.079Z,16.87
2018-06-21T00:04:39.428Z,16.71
2018-06-21T00:07:08.827Z,16.87
2018-06-21T00:09:38.224Z,16.89
2018-06-21T00:12:08.827Z,17.00
2018-06-21T00:14:37.933Z,17.00
2018-06-21T00:17:07.336Z,16.86
2018-06-21T00:19:36.700Z,16.84
2018-06-21T00:22:06.297Z,16.80
2018-06-21T00:24:35.664Z,16.80
2018-06-21T00:27:05.033Z,16.80
2018-06-21T00:29:34.132Z,20.17
2018-06-21T00:32:03.243Z,16.61
2018-06-21T00:34:32.609Z,16.51
2018-06-21T00:37:01.977Z,16.30
2018-06-21T00:39:31.328Z,16.44
2018-06-21T00:42:00.688Z,16.39
2018-06-21T00:44:30.034Z,15.73
2018-06-21T00:46:59.157Z,16.43
2018-06-21T00:49:28.500Z,16.29
2018-06-21T00:51:57.868Z,16.37
2018-06-21T00:54:27.238Z,16.29
2018-06-21T00:56:56.608Z,16.23
2018-06-21T00:59:26.004Z,16.20
2018-06-21T01:01:55.814Z,16.10
2018-06-21T01:04:25.174Z,16.06
2018-06-21T01:06:54.552Z,16.09
2018-06-21T01:09:23.901Z,16.18
2018-06-21T01:11:53.280Z,16.17
2018-06-21T01:14:22.649Z,16.17
2018-06-21T01:16:51.784Z,16.12
2018-06-21T01:19:21.151Z,16.13
2018-06-21T01:21:50.497Z,16.09
2018-06-21T01:24:19.952Z,16.03
2018-06-21T01:26:49.057Z,15.92
2018-06-21T01:29:18.422Z,15.84
2018-06-21T01:31:47.773Z,15.73
2018-06-21T01:34:17.140Z,15.64
2018-06-21T01:36:46.503Z,16.18
2018-06-21T01:39:15.884Z,15.56
2018-06-21T01:41:45.236Z,15.59
2018-06-21T01:44:14.604Z,15.57
2018-06-21T01:46:43.956Z,15.63
2018-06-21T01:49:13.317Z,15.52
2018-06-21T01:51:42.657Z,15.58
2018-06-21T01:54:11.772Z,15.59
2018-06-21T01:56:41.132Z,15.63
2018-06-21T01:59:10.528Z,15.47
2018-06-21T02:01:39.892Z,15.52
2018-06-21T02:04:09.264Z,15.45
2018-06-21T02:06:38.637Z,15.32
2018-06-21T02:09:09.518Z,15.30
2018-06-21T02:11:38.874Z,15.31
2018-06-21T02:14:08.941Z,15.32
2018-06-21T02:16:38.299Z,15.45
2018-06-21T02:19:07.670Z,15.46
2018-06-21T02:21:37.025Z,15.31
2018-06-21T02:24:06.235Z,15.47
2018-06-21T02:26:35.596Z,15.46
2018-06-21T02:29:04.964Z,15.46
2018-06-21T02:31:41.097Z,15.38
2018-06-21T02:34:10.491Z,15.41
2018-06-21T02:36:39.628Z,15.43
2018-06-21T02:39:09.813Z,15.38
2018-06-21T02:41:39.224Z,15.34
2018-06-21T02:44:09.415Z,15.25
2018-06-21T02:46:38.804Z,15.28
2018-06-21T02:49:08.196Z,14.86
2018-06-21T02:51:37.590Z,15.21
2018-06-21T02:54:07.215Z,15.27
2018-06-21T02:56:36.672Z,14.94
2018-06-21T02:59:06.081Z,15.25
2018-06-21T03:01:35.471Z,15.14
2018-06-21T03:04:04.904Z,15.14
2018-06-21T03:06:34.244Z,15.05
2018-06-21T03:09:03.734Z,15.15
2018-06-21T03:11:33.124Z,15.08
2018-06-21T03:14:02.516Z,15.15
2018-06-21T03:16:31.858Z,15.12
2018-06-21T03:19:00.972Z,15.09
2018-06-21T03:21:30.429Z,15.04
2018-06-21T03:24:00.179Z,15.08
2018-06-21T03:26:29.508Z,15.05
2018-06-21T03:28:58.861Z,14.98
2018-06-21T03:31:27.947Z,15.10
2018-06-21T03:33:57.284Z,15.13
2018-06-21T03:36:26.616Z,15.08
2018-06-21T03:38:55.937Z,15.10
2018-06-21T03:41:25.288Z,14.87
2018-06-21T03:43:54.617Z,15.05
2018-06-21T03:46:23.957Z,15.07
2018-06-21T03:48:53.043Z,15.05
2018-06-21T03:51:22.363Z,15.03
2018-06-21T03:53:51.695Z,15.22
2018-06-21T03:56:21.033Z,15.31
2018-06-21T03:58:50.356Z,15.35
2018-06-21T04:01:19.461Z,15.39
2018-06-21T04:03:48.804Z,15.34
2018-06-21T04:06:18.146Z,15.43
2018-06-21T04:08:47.488Z,15.35
2018-06-21T04:11:16.807Z,15.46
2018-06-21T04:13:46.138Z,15.40
2018-06-21T04:16:15.508Z,15.32
2018-06-21T04:18:44.827Z,15.52
2018-06-21T04:21:14.168Z,15.54
2018-06-21T04:23:43.508Z,15.73
2018-06-21T04:26:12.832Z,15.79
2018-06-21T04:28:42.188Z,15.80
2018-06-21T04:31:11.532Z,15.86
2018-06-21T04:36:37.527Z,16.10
2018-06-21T04:39:09.063Z,16.06
2018-06-21T04:41:38.396Z,16.04
2018-06-21T04:44:08.812Z,16.15
2018-06-21T04:46:38.180Z,16.25
2018-06-21T04:49:07.303Z,16.29
2018-06-21T04:51:36.652Z,16.20
2018-06-21T04:54:06.048Z,16.22
2018-06-21T04:56:35.368Z,16.25
2018-06-21T04:59:04.750Z,16.27
2018-06-21T05:01:34.073Z,16.40
2018-06-21T05:04:03.453Z,16.48
2018-06-21T05:06:32.788Z,16.56
2018-06-21T05:09:01.880Z,17.29
2018-06-21T05:11:30.976Z,16.65
2018-06-21T05:14:00.073Z,16.71
2018-06-21T05:16:29.392Z,16.82
2018-06-21T05:18:58.712Z,16.92
2018-06-21T05:21:28.067Z,17.05
2018-06-21T05:23:57.405Z,17.07
2018-06-21T05:26:26.758Z,17.14
2018-06-21T05:28:56.090Z,17.16
2018-06-21T05:31:25.403Z,17.32
2018-06-21T05:33:54.744Z,17.45
2018-06-21T05:36:24.057Z,17.59
2018-06-21T05:41:51.102Z,17.83
2018-06-21T05:44:20.478Z,17.89
2018-06-21T05:46:49.810Z,18.03
2018-06-21T05:49:19.167Z,18.12
2018-06-21T05:51:48.500Z,18.24
2018-06-21T05:54:17.858Z,18.35
2018-06-21T05:56:47.234Z,18.48
2018-06-21T05:59:16.588Z,18.34
2018-06-21T06:01:45.936Z,18.66
2018-06-21T06:04:15.275Z,18.75
2018-06-21T06:06:44.633Z,18.87
2018-06-21T06:09:13.986Z,18.98
2018-06-21T06:11:43.337Z,19.13
2018-06-21T06:14:12.730Z,19.09
2018-06-21T06:16:42.029Z,19.25
2018-06-21T06:19:11.368Z,19.59
2018-06-21T06:21:40.712Z,19.71
2018-06-21T06:24:10.059Z,19.79
2018-06-21T06:26:39.164Z,19.93
2018-06-21T06:29:08.479Z,20.04
2018-06-21T06:31:37.833Z,20.22
2018-06-21T06:34:07.165Z,20.24
2018-06-21T06:36:36.528Z,20.46
2018-06-21T06:39:15.759Z,20.58
2018-06-21T06:41:46.129Z,20.69
2018-06-21T06:44:15.486Z,20.79
2018-06-21T06:46:44.860Z,20.83
2018-06-21T06:49:14.191Z,20.93
2018-06-21T06:51:43.563Z,20.99
2018-06-21T06:54:12.939Z,21.02
2018-06-21T06:56:42.305Z,21.06
2018-06-21T06:59:11.663Z,21.18
2018-06-21T07:01:41.018Z,21.31
2018-06-21T07:04:10.527Z,21.38
2018-06-21T07:06:39.895Z,21.48
2018-06-21T07:09:09.869Z,21.59
2018-06-21T07:11:39.220Z,21.65
2018-06-21T07:14:08.676Z,21.80
2018-06-21T07:16:38.091Z,21.78
2018-06-21T07:19:07.425Z,21.65
2018-06-21T07:21:38.712Z,21.75
2018-06-21T07:24:09.631Z,21.73
2018-06-21T07:26:39.573Z,21.75
2018-06-21T07:29:09.274Z,21.78
2018-06-21T07:31:38.650Z,21.79
2018-06-21T07:34:09.141Z,21.97
2018-06-21T07:36:38.607Z,22.06
2018-06-21T07:39:10.159Z,22.13
2018-06-21T07:41:39.545Z,22.19
2018-06-21T07:44:09.310Z,22.26
2018-06-21T07:46:38.672Z,22.34
2018-06-21T07:49:08.047Z,22.44
2018-06-21T07:51:37.386Z,22.49
2018-06-21T07:54:06.727Z,22.63
2018-06-21T07:56:36.102Z,22.56
2018-06-21T07:59:05.469Z,22.64
2018-06-21T08:01:34.813Z,22.64
2018-06-21T08:04:04.156Z,22.84
2018-06-21T08:06:33.249Z,22.89
2018-06-21T08:09:02.345Z,22.95
2018-06-21T08:11:31.443Z,23.09
2018-06-21T08:14:00.548Z,22.92
2018-06-21T08:16:29.712Z,23.09
2018-06-21T08:18:59.061Z,23.14
2018-06-21T08:21:28.427Z,23.16
2018-06-21T08:23:57.772Z,23.12
2018-06-21T08:26:27.120Z,23.46
2018-06-21T08:28:56.468Z,23.52
2018-06-21T08:31:25.809Z,23.55
2018-06-21T08:33:55.189Z,23.64
2018-06-21T08:36:24.550Z,23.71
2018-06-21T08:38:53.685Z,23.71
2018-06-21T08:41:23.131Z,23.66
2018-06-21T08:43:52.481Z,23.26
2018-06-21T08:46:21.828Z,23.76
2018-06-21T08:48:51.191Z,23.54
2018-06-21T08:51:20.533Z,23.75
2018-06-21T08:53:49.893Z,23.84
2018-06-21T08:56:19.229Z,23.84
2018-06-21T08:58:48.764Z,23.82
2018-06-21T09:01:17.887Z,23.79
2018-06-21T09:03:47.312Z,23.57
2018-06-21T09:06:16.588Z,23.56
2018-06-21T09:08:45.936Z,23.80
2018-06-21T09:11:15.294Z,23.79
2018-06-21T09:13:44.661Z,24.10
2018-06-21T09:16:13.760Z,24.13
2018-06-21T09:18:42.847Z,24.17
2018-06-21T09:21:12.032Z,24.07
2018-06-21T09:23:41.317Z,23.93
2018-06-21T09:26:10.677Z,24.07
2018-06-21T09:28:40.033Z,24.07
2018-06-21T09:31:09.377Z,24.02
2018-06-21T09:33:38.805Z,24.14
2018-06-21T09:36:09.216Z,24.71
2018-06-21T09:38:43.845Z,24.06
2018-06-21T09:41:18.523Z,24.07
2018-06-21T09:44:03.829Z,24.78
2018-06-21T09:46:33.874Z,24.11
2018-06-21T09:48:56.919Z,24.17
2018-06-21T09:51:26.253Z,23.96
2018-06-21T09:53:55.625Z,23.65
2018-06-21T09:56:24.975Z,23.84
2018-06-21T09:58:54.110Z,23.88
2018-06-21T10:01:23.462Z,23.80
2018-06-21T10:03:52.830Z,23.62
2018-06-21T10:06:22.164Z,23.60
2018-06-21T10:08:51.532Z,23.52
2018-06-21T10:11:20.867Z,23.54
2018-06-21T10:13:50.217Z,23.58
2018-06-21T10:16:19.593Z,23.38
2018-06-21T10:18:48.943Z,23.47
2018-06-21T10:21:18.285Z,23.28
2018-06-21T10:23:47.633Z,23.32
2018-06-21T10:26:16.987Z,23.26
2018-06-21T10:28:46.082Z,23.30
2018-06-21T10:31:15.216Z,23.27
2018-06-21T10:33:44.571Z,23.40
2018-06-21T10:36:13.931Z,23.30
2018-06-21T10:38:43.288Z,23.27
2018-06-21T10:41:12.740Z,23.22
2018-06-21T10:43:42.082Z,23.02
2018-06-21T10:46:11.207Z,23.21
2018-06-21T10:48:40.600Z,23.19
2018-06-21T10:51:09.967Z,23.24
2018-06-21T10:53:39.321Z,23.29
2018-06-21T10:56:09.483Z,23.30
2018-06-21T10:58:38.839Z,23.16
2018-06-21T11:01:08.208Z,23.33
2018-06-21T11:03:37.303Z,23.27
2018-06-21T11:06:06.507Z,23.17
2018-06-21T11:08:35.868Z,23.06
2018-06-21T11:11:05.201Z,23.05
2018-06-21T11:13:34.317Z,22.41
2018-06-21T11:16:03.710Z,23.17
2018-06-21T11:18:32.800Z,23.16
2018-06-21T11:21:02.240Z,23.18
2018-06-21T11:23:31.607Z,23.25
2018-06-21T11:26:00.949Z,23.15
2018-06-21T11:28:30.310Z,23.27
2018-06-21T11:30:59.649Z,23.47
2018-06-21T11:33:29.014Z,23.53
2018-06-21T11:35:58.375Z,23.52
2018-06-21T11:38:27.752Z,23.59
2018-06-21T11:40:57.118Z,23.53
2018-06-21T11:43:26.491Z,23.49
2018-06-21T11:45:55.864Z,23.38
2018-06-21T11:48:25.223Z,23.35
2018-06-21T11:50:54.595Z,23.32
2018-06-21T11:53:23.954Z,23.32
2018-06-21T11:55:53.304Z,23.28
2018-06-21T11:58:22.668Z,23.28
2018-06-21T12:00:52.028Z,23.27
2018-06-21T12:03:21.459Z,23.33
2018-06-21T12:05:50.806Z,23.38
2018-06-21T12:08:20.160Z,23.33
2018-06-21T12:10:49.516Z,23.55
2018-06-21T12:13:18.632Z,23.64
2018-06-21T12:15:47.993Z,23.72
2018-06-21T12:18:17.377Z,23.76
2018-06-21T12:20:46.783Z,24.17
2018-06-21T12:23:16.108Z,24.15
2018-06-21T12:25:45.491Z,24.82
2018-06-21T12:28:14.869Z,24.11
2018-06-21T12:30:44.246Z,24.15
2018-06-21T12:33:13.599Z,24.31
2018-06-21T12:35:42.964Z,24.21
2018-06-21T12:38:12.314Z,24.18
2018-06-21T12:40:41.684Z,23.45
2018-06-21T12:43:11.049Z,23.91
2018-06-21T12:45:40.409Z,23.84
2018-06-21T12:48:10.041Z,23.90
2018-06-21T12:50:39.381Z,23.97
2018-06-21T12:53:08.749Z,24.17
2018-06-21T12:55:38.097Z,24.08
2018-06-21T12:58:07.527Z,24.00
2018-06-21T13:00:36.842Z,23.92
2018-06-21T13:03:05.966Z,23.84
2018-06-21T13:05:35.329Z,23.83
2018-06-21T13:08:04.686Z,23.50
2018-06-21T13:10:51.082Z,23.86
2018-06-21T13:13:26.629Z,23.89
2018-06-21T13:15:55.989Z,24.08
2018-06-21T13:18:25.081Z,23.94
2018-06-21T13:20:54.184Z,23.94
2018-06-21T13:23:23.580Z,23.91
2018-06-21T13:25:52.703Z,23.81
2018-06-21T13:28:22.070Z,23.89
2018-06-21T13:30:51.156Z,23.79
2018-06-21T13:33:20.512Z,23.67
2018-06-21T13:35:49.856Z,23.65
2018-06-21T13:38:19.217Z,23.61
2018-06-21T13:40:48.587Z,23.73
2018-06-21T13:43:17.947Z,23.73
2018-06-21T13:45:47.303Z,23.73
2018-06-21T13:48:16.657Z,23.81
2018-06-21T13:50:46.025Z,23.80
2018-06-21T13:53:15.369Z,23.84
2018-06-21T13:55:44.731Z,23.88
2018-06-21T13:58:14.068Z,23.81
2018-06-21T14:00:43.433Z,23.94
2018-06-21T14:03:12.789Z,24.04
2018-06-21T14:05:41.893Z,24.03
2018-06-21T14:08:11.326Z,23.77
2018-06-21T14:10:40.613Z,23.45
2018-06-21T14:13:09.972Z,23.36
2018-06-21T14:15:39.339Z,23.43
2018-06-21T14:18:09.397Z,23.31
2018-06-21T14:20:38.564Z,23.40
2018-06-21T14:23:07.602Z,23.42
2018-06-21T14:25:36.959Z,23.64
2018-06-21T14:28:06.313Z,23.29
2018-06-21T14:30:35.667Z,23.38
2018-06-21T14:33:05.042Z,24.04
2018-06-21T14:35:34.380Z,24.13
2018-06-21T14:38:03.740Z,24.00
2018-06-21T14:40:33.068Z,23.88
2018-06-21T14:43:02.388Z,23.74
2018-06-21T14:45:35.162Z,23.41
2018-06-21T14:48:04.571Z,22.96
2018-06-21T14:50:33.860Z,22.18
2018-06-21T14:53:03.212Z,22.50
2018-06-21T14:55:32.536Z,22.29
2018-06-21T14:58:01.934Z,22.21
2018-06-21T15:00:31.196Z,21.86
2018-06-21T15:03:00.614Z,21.96
2018-06-21T15:05:29.937Z,22.03
2018-06-21T15:07:59.259Z,21.97
2018-06-21T15:10:28.629Z,21.75
2018-06-21T15:12:57.952Z,21.89
2018-06-21T15:15:27.273Z,21.73
2018-06-21T15:17:56.596Z,21.62
2018-06-21T15:20:25.668Z,21.82
2018-06-21T15:22:55.046Z,21.90
2018-06-21T15:25:24.324Z,21.75
2018-06-21T15:27:53.657Z,21.60
2018-06-21T15:30:22.992Z,21.42
2018-06-21T15:32:52.409Z,21.42
2018-06-21T15:35:21.698Z,21.14
2018-06-21T15:37:51.024Z,21.04
2018-06-21T15:40:20.346Z,20.97
2018-06-21T15:42:49.667Z,20.81
2018-06-21T15:45:18.994Z,20.62
2018-06-21T15:47:48.056Z,20.37
2018-06-21T15:50:17.385Z,20.57
2018-06-21T15:52:46.721Z,20.65
2018-06-21T15:55:16.148Z,20.65
2018-06-21T15:57:45.468Z,20.62
2018-06-21T16:00:15.608Z,20.51
2018-06-21T16:02:44.928Z,20.32
2018-06-21T16:05:14.243Z,20.28
2018-06-21T16:07:43.585Z,20.51
2018-06-21T16:10:12.916Z,20.51
2018-06-21T16:12:41.974Z,20.52
2018-06-21T16:15:11.292Z,20.52
2018-06-21T16:17:40.629Z,21.25
2018-06-21T16:20:09.953Z,20.63
2018-06-21T16:22:39.260Z,20.40
2018-06-21T16:25:08.609Z,20.49
2018-06-21T16:27:37.939Z,20.50
2018-06-21T16:30:07.353Z,20.55
2018-06-21T16:32:36.667Z,20.46
2018-06-21T16:35:06.015Z,20.56
2018-06-21T16:37:35.096Z,20.45
2018-06-21T16:40:04.465Z,20.98
2018-06-21T16:42:33.817Z,20.30
2018-06-21T16:45:04.389Z,20.19
2018-06-21T16:47:33.709Z,20.31
2018-06-21T16:50:03.028Z,20.26
2018-06-21T16:52:32.339Z,20.25
2018-06-21T16:55:01.409Z,20.26
2018-06-21T16:57:30.741Z,20.29
2018-06-21T16:59:59.816Z,20.18
2018-06-21T17:02:29.201Z,20.34
2018-06-21T17:04:58.521Z,20.31
2018-06-21T17:07:27.600Z,20.33
2018-06-21T17:09:56.943Z,20.28
2018-06-21T17:12:26.263Z,20.35
2018-06-21T17:14:55.585Z,20.40
2018-06-21T17:17:25.142Z,20.47
2018-06-21T17:19:54.472Z,20.66
2018-06-21T17:22:23.804Z,20.75
2018-06-21T17:24:53.148Z,20.80
2018-06-21T17:27:22.463Z,20.73
2018-06-21T17:29:51.788Z,20.65
2018-06-21T17:32:20.916Z,20.66
2018-06-21T17:34:50.235Z,20.64
2018-06-21T17:37:19.577Z,20.58
2018-06-21T17:39:48.884Z,20.57
2018-06-21T17:42:18.207Z,20.64
2018-06-21T17:44:47.527Z,20.58
2018-06-21T17:47:16.846Z,20.58
2018-06-21T17:49:46.159Z,20.47
2018-06-21T17:52:15.640Z,20.31
2018-06-21T17:54:44.933Z,20.14
2018-06-21T17:57:14.068Z,20.57
2018-06-21T17:59:43.388Z,19.97
2018-06-21T18:02:12.707Z,19.87
2018-06-21T18:04:42.232Z,19.43
2018-06-21T18:07:11.331Z,19.41
2018-06-21T18:09:40.627Z,19.42
2018-06-21T18:12:09.717Z,19.37
2018-06-21T18:14:39.031Z,19.04
2018-06-21T18:17:08.365Z,19.12
2018-06-21T18:19:37.707Z,19.27
2018-06-21T18:22:06.996Z,19.18
2018-06-21T18:24:36.291Z,18.90
2018-06-21T18:27:05.660Z,18.84
2018-06-21T18:29:34.989Z,18.95
2018-06-21T18:32:04.312Z,18.86
2018-06-21T18:34:33.627Z,18.70
2018-06-21T18:37:02.949Z,18.67
2018-06-21T18:39:32.269Z,18.48
2018-06-21T18:42:01.591Z,18.36
2018-06-21T18:44:30.897Z,18.39
2018-06-21T18:47:00.216Z,18.36
2018-06-21T18:49:29.532Z,18.30
2018-06-21T18:51:58.614Z,18.40
2018-06-21T18:54:27.948Z,18.19
2018-06-21T18:56:57.246Z,18.20
2018-06-21T18:59:26.592Z,18.15
2018-06-21T19:01:55.910Z,18.11
2018-06-21T19:04:25.233Z,18.07
2018-06-21T19:06:59.593Z,17.89
2018-06-21T19:09:34.204Z,17.76
2018-06-21T19:12:06.029Z,17.60
2018-06-21T19:14:35.107Z,17.55
2018-06-21T19:17:04.503Z,18.43
2018-06-21T19:19:33.823Z,17.66
2018-06-21T19:22:02.910Z,17.52
2018-06-21T19:24:32.245Z,17.41
2018-06-21T19:27:01.566Z,17.47
2018-06-21T19:29:30.893Z,17.53
2018-06-21T19:32:00.218Z,17.62
2018-06-21T19:34:29.291Z,17.44
2018-06-21T19:36:58.617Z,17.41
2018-06-21T19:39:27.683Z,17.21
2018-06-21T19:41:57.004Z,17.34
2018-06-21T19:44:26.324Z,17.10
2018-06-21T19:46:55.664Z,16.99
2018-06-21T19:49:24.975Z,17.05
2018-06-21T19:51:54.319Z,16.96
2018-06-21T19:54:23.407Z,16.78
2018-06-21T19:56:52.475Z,16.71
2018-06-21T19:59:21.788Z,16.65
2018-06-21T20:01:51.097Z,16.75
2018-06-21T20:04:20.172Z,16.71
2018-06-21T20:06:49.502Z,16.69
2018-06-21T20:09:18.824Z,16.74
2018-06-21T20:11:48.153Z,16.74
2018-06-21T20:14:17.488Z,16.68
2018-06-21T20:16:46.799Z,16.40
2018-06-21T20:19:17.435Z,16.44
2018-06-21T20:21:46.608Z,16.56
2018-06-21T20:24:15.989Z,16.25
2018-06-21T20:26:45.305Z,16.33
2018-06-21T20:29:20.049Z,16.33
2018-06-21T20:31:49.142Z,16.20
2018-06-21T20:34:18.512Z,16.25
2018-06-21T20:36:47.836Z,16.23
2018-06-21T20:39:17.139Z,15.93
2018-06-21T20:41:46.211Z,16.01
2018-06-21T20:44:15.549Z,15.82
2018-06-21T20:46:44.827Z,15.89
2018-06-21T20:49:14.132Z,15.83
2018-06-21T20:51:43.449Z,15.50
2018-06-21T20:54:12.506Z,15.61
2018-06-21T20:56:41.829Z,15.74
2018-06-21T20:59:11.133Z,15.49
2018-06-21T21:01:40.200Z,15.27
2018-06-21T21:04:09.494Z,15.52
2018-06-21T21:06:38.799Z,15.34
2018-06-21T21:09:08.447Z,15.18
2018-06-21T21:11:37.731Z,15.03
2018-06-21T21:14:06.796Z,14.91
2018-06-21T21:16:36.142Z,15.06
2018-06-21T21:19:05.420Z,14.93
2018-06-21T21:21:34.803Z,14.31
2018-06-21T21:24:04.108Z,15.06
2018-06-21T21:26:33.415Z,14.95
2018-06-21T21:29:02.723Z,15.52
2018-06-21T21:31:32.057Z,14.90
2018-06-21T21:34:01.158Z,14.90
2018-06-21T21:36:30.443Z,14.07
2018-06-21T21:38:59.507Z,14.64
2018-06-21T21:41:28.821Z,14.63
2018-06-21T21:43:57.896Z,14.53
2018-06-21T21:46:27.224Z,14.43
2018-06-21T21:48:56.283Z,14.43
2018-06-21T21:51:25.579Z,14.35
2018-06-21T21:53:54.905Z,14.04
2018-06-21T21:56:24.028Z,14.03
2018-06-21T21:58:53.339Z,13.88
2018-06-21T22:01:22.683Z,13.88
2018-06-21T22:03:51.967Z,13.81
2018-06-21T22:06:21.267Z,13.78
2018-06-21T22:08:50.685Z,13.66
2018-06-21T22:11:19.997Z,13.57
2018-06-21T22:13:52.788Z,14.12
2018-06-21T22:16:22.113Z,13.68
2018-06-21T22:18:51.432Z,13.49
2018-06-21T22:21:20.746Z,13.55
2018-06-21T22:23:50.061Z,13.25
2018-06-21T22:26:19.380Z,13.45
2018-06-21T22:28:48.688Z,13.17
2018-06-21T22:31:18.004Z,13.20
2018-06-21T22:33:47.716Z,13.23
2018-06-21T22:36:17.116Z,13.06
2018-06-21T22:38:46.175Z,12.87
2018-06-21T22:41:15.483Z,12.84
2018-06-21T22:43:44.803Z,14.32
2018-06-21T22:46:14.116Z,13.35
2018-06-21T22:48:43.432Z,13.34
2018-06-21T22:51:12.745Z,13.51
2018-06-21T22:53:42.085Z,13.40
2018-06-21T22:56:11.393Z,13.24
2018-06-21T22:58:40.751Z,13.35
2018-06-21T23:01:10.067Z,13.41
2018-06-21T23:03:39.384Z,13.24
2018-06-21T23:06:09.149Z,13.06
2018-06-21T23:08:38.470Z,13.22
2018-06-21T23:11:07.788Z,13.15
2018-06-21T23:13:37.102Z,13.27
2018-06-21T23:16:06.415Z,13.20
2018-06-21T23:18:52.864Z,13.21
2018-06-21T23:21:22.143Z,13.12
2018-06-21T23:23:51.461Z,13.03
2018-06-21T23:26:20.783Z,12.95
2018-06-21T23:28:50.095Z,12.90
2018-06-21T23:31:19.404Z,12.87
2018-06-21T23:33:48.462Z,12.62
2018-06-21T23:36:17.782Z,12.67
2018-06-21T23:38:47.098Z,12.67
2018-06-21T23:41:16.169Z,12.53
2018-06-21T23:43:45.468Z,12.55
2018-06-21T23:46:14.778Z,12.51
2018-06-21T23:48:44.088Z,12.51
2018-06-21T23:51:13.408Z,12.62
2018-06-21T23:53:42.729Z,12.56
2018-06-21T23:56:12.046Z,12.57
2018-06-21T23:58:41.358Z,12.51
